createdAt,value
2024-01-01T08:41:21.727Z,100.00
2024-01-01T08:43:58.563Z,100.00
2024-01-01T08:46:28.535Z,100.00
2024-01-01T08:48:57.100Z,100.00
2024-01-01T08:51:25.278Z,100.00
2024-01-01T08:53:53.610Z,100.00
2024-01-01T08:56:21.704Z,100.00
2024-01-01T08:58:50.196Z,100.00
2024-01-01T09:01:18.379Z,100.00
2024-01-01T09:03:46.711Z,100.00
2024-01-01T09:06:14.745Z,100.00
2024-01-01T09:08:44.678Z,100.00
2024-01-01T09:11:12.716Z,100.00
2024-01-01T09:13:41.652Z,100.00
2024-01-01T09:16:09.683Z,100.00
2024-01-01T09:18:39.599Z,100.00
2024-01-01T09:21:15.536Z,100.00
2024-01-01T09:23:44.070Z,100.00
2024-01-01T09:26:15.278Z,100.00
2024-01-01T09:28:43.757Z,100.00
2024-01-01T09:31:12.262Z,100.00
2024-01-01T09:33:41.276Z,100.00
2024-01-01T09:36:10.185Z,100.00
2024-01-01T09:38:38.682Z,100.00
2024-01-01T09:41:10.621Z,100.00
2024-01-01T09:43:41.111Z,100.00
2024-01-01T09:46:09.846Z,100.00
2024-01-01T09:48:38.717Z,100.00
2024-01-01T09:51:06.993Z,100.00
2024-01-01T09:53:35.628Z,100.00
2024-01-01T09:56:04.242Z,99.17
2024-01-01T09:58:43.597Z,98.89
2024-01-01T10:01:20.777Z,100.00
2024-01-01T10:04:04.968Z,97.51
2024-01-01T10:06:34.771Z,96.04
2024-01-01T10:09:08.439Z,93.86
2024-01-01T10:11:43.011Z,94.62
2024-01-01T10:14:13.133Z,95.92
2024-01-01T10:16:41.803Z,93.71
2024-01-01T10:19:10.531Z,92.94
2024-01-01T10:21:40.215Z,91.13
2024-01-01T10:24:30.073Z,93.53
2024-01-01T10:27:03.131Z,92.86
2024-01-01T10:29:36.846Z,94.08
2024-01-01T10:32:06.420Z,94.48
2024-01-01T10:34:39.204Z,93.59
2024-01-01T10:37:08.798Z,92.38
2024-01-01T10:39:39.931Z,92.39
2024-01-01T10:42:08.497Z,93.59
2024-01-01T10:44:37.676Z,93.17
2024-01-01T10:47:10.893Z,90.42
2024-01-01T10:49:52.556Z,87.95
2024-01-01T10:52:45.769Z,86.79
2024-01-01T10:55:37.112Z,85.13
2024-01-01T10:58:29.716Z,86.77
2024-01-01T11:01:11.596Z,86.54
2024-01-01T11:03:41.227Z,85.99
2024-01-01T11:06:29.421Z,84.92
2024-01-01T11:08:59.725Z,85.70
2024-01-01T11:11:32.198Z,89.07
2024-01-01T11:14:02.082Z,87.17
2024-01-01T11:17:00.843Z,87.08
2024-01-01T11:22:21.904Z,84.79
2024-01-01T11:24:51.691Z,86.17
2024-01-01T11:27:34.459Z,85.41
2024-01-01T11:30:09.258Z,82.84
2024-01-01T11:32:39.107Z,79.82
2024-01-01T11:35:16.965Z,77.04
2024-01-01T11:37:47.342Z,78.60
2024-01-01T11:40:15.842Z,83.78
2024-01-01T11:42:44.369Z,84.69
2024-01-01T11:45:20.084Z,81.79
2024-01-01T11:47:50.283Z,78.27
2024-01-01T11:50:18.596Z,77.58
2024-01-01T11:53:01.647Z,75.93
2024-01-01T11:55:29.817Z,74.29
2024-01-01T11:57:58.786Z,74.23
2024-01-01T12:00:27.072Z,74.59
2024-01-01T12:02:55.578Z,75.25
2024-01-01T12:05:23.887Z,74.88
2024-01-01T12:07:52.364Z,74.40
2024-01-01T12:10:21.941Z,74.46
2024-01-01T12:13:00.207Z,74.39
2024-01-01T12:15:32.506Z,73.33
2024-01-01T12:18:01.440Z,73.00
2024-01-01T12:20:29.804Z,72.61
2024-01-01T12:23:26.088Z,72.78
2024-01-01T12:26:06.326Z,73.59
2024-01-01T12:28:34.941Z,73.94
2024-01-01T12:31:03.231Z,73.80
2024-01-01T12:33:32.720Z,75.31
2024-01-01T12:36:01.649Z,75.18
2024-01-01T12:38:30.112Z,76.25
2024-01-01T12:40:58.267Z,76.86
2024-01-01T12:43:26.996Z,76.04
2024-01-01T12:45:55.308Z,76.09
2024-01-01T12:48:24.334Z,76.14
2024-01-01T12:50:52.554Z,75.43
2024-01-01T12:53:21.336Z,74.40
2024-01-01T12:55:49.582Z,74.32
2024-01-01T12:58:20.359Z,74.62
2024-01-01T13:00:48.863Z,72.75
2024-01-01T13:03:17.755Z,72.46
2024-01-01T13:05:47.964Z,72.27
2024-01-01T13:08:16.753Z,71.08
2024-01-01T13:10:45.056Z,71.56
2024-01-01T13:13:13.736Z,71.54
2024-01-01T13:15:42.091Z,72.57
2024-01-01T13:18:11.157Z,72.52
2024-01-01T13:20:39.633Z,74.32
2024-01-01T13:23:09.949Z,73.78
2024-01-01T13:25:38.275Z,73.79
2024-01-01T13:28:07.058Z,73.53
2024-01-01T13:30:35.412Z,73.01
2024-01-01T13:33:08.377Z,75.24
2024-01-01T13:35:37.398Z,75.84
2024-01-01T13:38:06.381Z,76.51
2024-01-01T13:40:40.848Z,75.14
2024-01-01T13:43:13.373Z,74.85
2024-01-01T13:45:42.663Z,74.88
2024-01-01T13:48:13.868Z,75.76
2024-01-01T13:50:45.688Z,74.52
2024-01-01T13:53:14.896Z,74.66
2024-01-01T13:55:43.339Z,74.54
2024-01-01T13:58:12.030Z,75.47
2024-01-01T14:00:42.356Z,74.41
2024-01-01T14:03:11.568Z,75.97
2024-01-01T14:05:40.132Z,76.96
2024-01-01T14:08:09.292Z,75.38
2024-01-01T14:10:37.975Z,78.31
2024-01-01T14:13:07.514Z,78.16
2024-01-01T14:15:35.959Z,78.96
2024-01-01T14:18:04.930Z,79.26
2024-01-01T14:20:33.239Z,79.77
2024-01-01T14:23:01.968Z,80.36
2024-01-01T14:25:30.293Z,81.14
2024-01-01T14:27:59.108Z,81.96
2024-01-01T14:30:27.633Z,81.75
2024-01-01T14:32:56.549Z,81.48
2024-01-01T14:35:25.049Z,81.38
2024-01-01T14:37:53.857Z,82.82
2024-01-01T14:40:22.322Z,83.11
2024-01-01T14:42:50.945Z,83.54
2024-01-01T14:45:19.194Z,84.24
2024-01-01T14:47:49.013Z,86.10
2024-01-01T14:50:17.427Z,85.65
2024-01-01T14:52:46.274Z,85.07
2024-01-01T14:55:14.598Z,86.21
2024-01-01T14:57:43.264Z,86.82
2024-01-01T15:00:13.186Z,87.67
2024-01-01T15:02:41.799Z,87.73
2024-01-01T15:05:10.287Z,87.73
2024-01-01T15:07:39.125Z,88.17
2024-01-01T15:10:07.716Z,87.64
2024-01-01T15:12:36.347Z,87.95
2024-01-01T15:15:04.848Z,88.51
2024-01-01T15:17:34.102Z,88.17
2024-01-01T15:20:04.965Z,89.90
2024-01-01T15:22:33.863Z,89.16
2024-01-01T15:25:02.118Z,89.56
2024-01-01T15:27:30.756Z,90.32
2024-01-01T15:29:59.048Z,89.84
2024-01-01T15:32:28.408Z,89.75
2024-01-01T15:34:56.726Z,90.66
2024-01-01T15:37:25.388Z,91.87
2024-01-01T15:39:53.644Z,91.86
2024-01-01T15:42:22.690Z,92.09
2024-01-01T15:44:50.920Z,92.69
2024-01-01T15:47:21.159Z,92.23
2024-01-01T15:49:49.816Z,92.77
2024-01-01T15:52:18.682Z,93.22
2024-01-01T15:54:47.244Z,94.49
2024-01-01T15:57:15.973Z,95.52
2024-01-01T15:59:44.425Z,95.54
2024-01-01T16:02:13.276Z,94.19
2024-01-01T16:04:41.665Z,93.13
2024-01-01T16:07:10.324Z,92.88
2024-01-01T16:09:38.787Z,95.26
2024-01-01T16:12:07.776Z,97.61
2024-01-01T16:14:36.216Z,96.95
2024-01-01T16:17:05.248Z,97.41
2024-01-01T16:19:35.113Z,98.10
2024-01-01T16:22:04.613Z,97.83
2024-01-01T16:24:33.001Z,96.39
2024-01-01T16:27:02.481Z,97.33
2024-01-01T16:29:30.855Z,98.53
2024-01-01T16:31:59.638Z,99.29
2024-01-01T16:34:27.977Z,99.91
2024-01-01T16:36:57.734Z,99.93
2024-01-01T16:39:26.292Z,100.00
2024-01-01T16:41:55.876Z,100.00
2024-01-01T16:44:24.068Z,100.00
2024-01-01T16:46:52.513Z,100.00
2024-01-01T16:49:20.566Z,100.00
2024-01-01T16:51:51.306Z,100.00
2024-01-01T16:54:19.644Z,100.00
2024-01-01T16:56:48.416Z,100.00
2024-01-01T16:59:16.484Z,100.00
2024-01-01T17:01:46.898Z,100.00
2024-01-01T17:04:15.039Z,100.00
2024-01-01T17:06:46.911Z,100.00
2024-01-01T17:09:14.941Z,100.00
2024-01-01T17:11:47.318Z,100.00
2024-01-01T17:14:16.199Z,100.00
2024-01-01T17:16:44.826Z,100.00
2024-01-01T17:19:13.017Z,100.00
2024-01-01T17:21:41.416Z,100.00
2024-01-01T17:24:09.861Z,100.00
2024-01-01T17:26:37.916Z,100.00
2024-01-01T17:29:06.272Z,100.00
2024-01-01T17:31:34.304Z,100.00
2024-01-01T17:34:02.612Z,100.00
2024-01-01T17:36:31.246Z,100.00
2024-01-01T17:39:00.180Z,100.00
2024-01-01T17:41:28.391Z,100.00
2024-01-01T17:43:57.010Z,100.00
2024-01-01T17:46:25.049Z,100.00
2024-01-01T17:48:53.550Z,100.00
2024-01-01T17:51:21.494Z,100.00
2024-01-01T17:53:49.868Z,100.00
2024-01-01T17:56:17.854Z,100.00
2024-01-01T17:58:46.296Z,100.00
2024-01-01T18:01:15.636Z,100.00
2024-01-01T18:03:44.078Z,100.00
2024-01-01T18:06:12.215Z,100.00
2024-01-01T18:08:41.000Z,100.00
2024-01-01T18:11:09.068Z,100.00
2024-01-01T18:13:37.843Z,100.00
2024-01-01T18:16:06.225Z,100.00
2024-01-01T18:18:35.897Z,100.00
2024-01-01T18:21:04.225Z,100.00
2024-01-01T18:23:32.685Z,100.00
2024-01-01T18:26:00.788Z,100.00
2024-01-01T18:28:29.766Z,100.00
2024-01-01T18:30:58.488Z,100.00
2024-01-01T18:33:27.039Z,100.00
2024-01-01T18:35:55.063Z,100.00
2024-01-01T18:38:23.452Z,100.00
2024-01-01T18:40:51.563Z,100.00
2024-01-01T18:43:20.039Z,100.00
2024-01-01T18:45:47.986Z,100.00
2024-01-01T18:48:17.456Z,100.00
2024-01-01T18:50:46.003Z,100.00
2024-01-01T18:53:14.482Z,100.00
2024-01-01T18:55:43.882Z,100.00
2024-01-01T18:58:12.370Z,100.00
2024-01-01T19:00:40.461Z,100.00
2024-01-01T19:03:09.259Z,100.00
2024-01-01T19:05:37.582Z,100.00
2024-01-01T19:08:06.568Z,100.00
2024-01-01T19:10:34.646Z,100.00
2024-01-01T19:13:04.942Z,100.00
2024-01-01T19:15:34.363Z,100.00
2024-01-01T19:18:08.462Z,100.00
2024-01-01T19:20:39.479Z,100.00
2024-01-01T19:23:08.154Z,100.00
2024-01-01T19:25:36.385Z,100.00
2024-01-01T19:28:04.946Z,100.00
2024-01-01T19:30:33.071Z,100.00
2024-01-01T19:33:02.329Z,100.00
2024-01-01T19:35:30.506Z,100.00
2024-01-01T19:37:59.923Z,100.00
2024-01-01T19:40:28.118Z,100.00
2024-01-01T19:42:56.592Z,100.00
2024-01-01T19:45:26.540Z,100.00
2024-01-01T19:47:55.149Z,100.00
2024-01-01T19:50:23.327Z,100.00
2024-01-01T19:52:51.902Z,100.00
2024-01-01T19:55:19.981Z,100.00
2024-01-01T19:57:48.285Z,100.00
2024-01-01T20:00:18.441Z,100.00
2024-01-01T20:02:46.841Z,100.00
2024-01-01T20:05:15.097Z,100.00
2024-01-01T20:07:43.729Z,100.00
2024-01-01T20:10:11.870Z,100.00
2024-01-01T20:12:41.158Z,100.00
2024-01-01T20:15:09.547Z,100.00
2024-01-01T20:17:38.634Z,100.00
2024-01-01T20:20:09.063Z,100.00
2024-01-01T20:22:37.514Z,100.00
2024-01-01T20:25:05.985Z,100.00
2024-01-01T20:27:34.546Z,100.00
2024-01-01T20:30:02.557Z,100.00
2024-01-01T20:32:31.162Z,100.00
2024-01-01T20:34:59.299Z,100.00
2024-01-01T20:37:29.743Z,100.00
2024-01-01T20:39:58.211Z,100.00
2024-01-01T20:42:26.755Z,100.00
2024-01-01T20:44:54.735Z,100.00
2024-01-01T20:47:23.269Z,100.00
2024-01-01T20:49:53.115Z,100.00
2024-01-01T20:52:27.667Z,100.00
2024-01-01T20:54:58.188Z,100.00
2024-01-01T20:57:26.700Z,100.00
2024-01-01T20:59:54.984Z,100.00
2024-01-01T21:02:23.540Z,100.00
2024-01-01T21:04:51.857Z,100.00
2024-01-01T21:07:20.336Z,100.00
2024-01-01T21:09:48.462Z,100.00
2024-01-01T21:12:16.952Z,100.00
2024-01-01T21:14:45.068Z,100.00
2024-01-01T21:17:13.477Z,100.00
2024-01-01T21:19:41.961Z,100.00
2024-01-01T21:22:10.398Z,100.00
2024-01-01T21:24:38.405Z,100.00
2024-01-01T21:27:06.702Z,100.00
2024-01-01T21:29:34.786Z,100.00
2024-01-01T21:32:03.557Z,100.00
2024-01-01T21:34:31.695Z,100.00
2024-01-01T21:37:00.187Z,100.00
2024-01-01T21:39:28.262Z,100.00
2024-01-01T21:41:57.269Z,100.00
2024-01-01T21:44:25.883Z,100.00
2024-01-01T21:46:54.376Z,100.00
2024-01-01T21:49:22.562Z,100.00
2024-01-01T21:51:51.366Z,100.00
2024-01-01T21:54:19.522Z,100.00
2024-01-01T21:56:48.005Z,100.00
2024-01-01T21:59:15.993Z,100.00
2024-01-01T22:01:44.529Z,100.00
2024-01-01T22:04:13.756Z,100.00
2024-01-01T22:06:43.867Z,100.00
2024-01-01T22:09:11.838Z,100.00
2024-01-01T22:11:40.547Z,100.00
2024-01-01T22:14:09.369Z,100.00
2024-01-01T22:16:41.456Z,100.00
2024-01-01T22:19:09.592Z,100.00
2024-01-01T22:21:38.882Z,100.00
2024-01-01T22:24:07.029Z,100.00
2024-01-01T22:26:35.636Z,100.00
2024-01-01T22:29:04.106Z,100.00
2024-01-01T22:31:32.536Z,100.00
2024-01-01T22:34:00.663Z,100.00
2024-01-01T22:36:29.119Z,100.00
2024-01-01T22:38:57.051Z,100.00
2024-01-01T22:41:25.495Z,100.00
2024-01-01T22:43:53.470Z,100.00
2024-01-01T22:46:21.965Z,100.00
2024-01-01T22:48:50.772Z,100.00
2024-01-01T22:51:19.379Z,100.00
2024-01-01T22:53:47.319Z,100.00
2024-01-01T22:56:15.713Z,100.00
2024-01-01T22:58:44.445Z,100.00
2024-01-01T23:01:12.847Z,100.00
2024-01-01T23:03:41.129Z,100.00
2024-01-01T23:06:13.912Z,100.00
2024-01-01T23:08:42.495Z,100.00
2024-01-01T23:11:10.837Z,100.00
2024-01-01T23:13:38.944Z,100.00
2024-01-01T23:16:07.569Z,100.00
2024-01-01T23:18:35.858Z,100.00
2024-01-01T23:21:04.529Z,100.00
2024-01-01T23:23:32.533Z,100.00
2024-01-01T23:26:01.286Z,100.00
2024-01-01T23:28:29.381Z,100.00
2024-01-01T23:30:57.778Z,100.00
2024-01-01T23:33:26.134Z,100.00
2024-01-01T23:35:54.581Z,100.00
2024-01-01T23:38:22.609Z,100.00
2024-01-01T23:40:51.086Z,100.00
2024-01-01T23:43:19.086Z,100.00
2024-01-01T23:45:47.465Z,100.00
2024-01-01T23:48:15.720Z,100.00
2024-01-01T23:50:48.664Z,100.00
2024-01-01T23:53:17.106Z,100.00
2024-01-01T23:55:46.207Z,100.00
2024-01-01T23:58:14.893Z,100.00
